createdAt,value
2023-03-23T16:02:25.524Z,17.59
2023-03-23T16:07:27.584Z,17.37
2023-03-23T16:12:29.330Z,17.17
2023-03-23T16:17:31.163Z,16.96
2023-03-23T16:22:32.988Z,16.79
2023-03-23T16:27:35.076Z,16.65
2023-03-23T16:37:37.497Z,16.35
2023-03-23T16:42:39.476Z,16.25
2023-03-23T16:47:42.425Z,16.17
2023-03-23T16:52:47.648Z,16.07
2023-03-23T16:57:49.378Z,15.97
2023-03-23T17:02:52.622Z,15.88
2023-03-23T17:07:55.966Z,15.78
2023-03-23T17:12:58.059Z,15.86
2023-03-23T17:17:59.904Z,16.40
2023-03-23T17:23:02.172Z,16.26
2023-03-23T17:28:05.873Z,15.83
2023-03-23T17:33:09.971Z,15.74
2023-03-23T17:38:11.998Z,16.18
2023-03-23T17:43:13.713Z,16.05
2023-03-23T17:48:15.612Z,15.85
2023-03-23T17:53:18.703Z,15.88
2023-03-23T17:58:20.844Z,16.05
2023-03-23T18:03:24.545Z,16.15
2023-03-23T18:08:26.992Z,16.22
2023-03-23T18:13:31.774Z,16.28
2023-03-23T18:18:34.097Z,16.37
2023-03-23T18:23:46.181Z,16.46
2023-03-23T18:28:56.071Z,16.58
2023-03-23T18:33:58.084Z,16.67
2023-03-23T18:39:00.073Z,16.79
2023-03-23T18:44:01.776Z,16.85
2023-03-23T18:49:04.287Z,16.85
2023-03-23T18:54:06.011Z,16.35
2023-03-23T18:59:07.681Z,15.78
2023-03-23T19:04:09.558Z,15.43
2023-03-23T19:09:12.717Z,15.17
2023-03-23T19:14:14.546Z,15.28
2023-03-23T19:19:16.584Z,16.20
2023-03-23T19:24:18.591Z,17.17
2023-03-23T19:29:26.528Z,16.97
2023-03-23T19:34:30.520Z,16.15
2023-03-23T19:39:33.629Z,15.69
2023-03-23T19:44:36.173Z,15.40
2023-03-23T19:49:39.010Z,15.26
2023-03-23T19:54:41.498Z,15.93
2023-03-23T19:59:44.536Z,16.42
2023-03-23T20:04:46.884Z,15.99
2023-03-23T20:09:48.848Z,15.54
2023-03-23T20:14:50.776Z,15.30
2023-03-23T20:19:52.549Z,15.50
2023-03-23T20:24:54.662Z,16.08
2023-03-23T20:29:57.024Z,16.13
2023-03-23T20:35:06.405Z,16.23
2023-03-23T20:40:14.478Z,16.25
2023-03-23T20:45:18.438Z,16.15
2023-03-23T20:50:20.310Z,15.89
2023-03-23T20:55:22.069Z,15.73
2023-03-23T21:00:23.787Z,15.63
2023-03-23T21:05:25.811Z,15.55
2023-03-23T21:10:28.520Z,15.50
2023-03-23T21:15:31.275Z,15.47
2023-03-23T21:20:34.119Z,15.47
2023-03-23T21:25:36.982Z,15.47
2023-03-23T21:30:45.348Z,15.47
2023-03-23T21:35:47.326Z,15.47
2023-03-23T21:40:49.410Z,15.46
2023-03-23T21:45:55.963Z,15.44
2023-03-23T21:50:57.677Z,15.41
2023-03-23T21:55:59.535Z,15.39
2023-03-23T22:01:02.232Z,15.35
2023-03-23T22:06:18.333Z,15.30
2023-03-23T22:11:24.605Z,15.27
2023-03-23T22:16:28.923Z,15.24
2023-03-23T22:21:31.492Z,15.20
2023-03-23T22:26:33.718Z,15.08
2023-03-23T22:31:39.677Z,14.92
2023-03-23T22:36:42.279Z,14.76
2023-03-23T22:41:44.948Z,14.61
2023-03-23T22:46:48.825Z,14.64
2023-03-23T22:51:51.644Z,15.02
2023-03-23T22:56:53.509Z,15.23
2023-03-23T23:01:55.762Z,15.37
2023-03-23T23:07:06.686Z,15.54
2023-03-23T23:12:15.231Z,15.63
2023-03-23T23:17:17.119Z,15.72
2023-03-23T23:22:19.600Z,15.84
2023-03-23T23:27:21.592Z,15.95
2023-03-23T23:32:23.395Z,15.95
2023-03-23T23:37:25.306Z,15.60
2023-03-23T23:42:27.178Z,15.26
2023-03-23T23:47:29.261Z,15.03
2023-03-23T23:52:30.990Z,15.04
2023-03-23T23:57:33.434Z,15.37
